sensor_id;sensor_type;location;lat;lon;timestamp;P1;durP1;ratioP1;P2;durP2;ratioP2
3447;SDS011;1738;49.500;17.736;2022-11-20T00:00:29;41.33;;;23.77;;
3447;SDS011;1738;49.500;17.736;2022-11-20T00:02:55;38.30;;;24.30;;
3447;SDS011;1738;49.500;17.736;2022-11-20T00:05:21;36.58;;;23.90;;
3447;SDS011;1738;49.500;17.736;2022-11-20T00:07:47;42.17;;;25.13;;
3447;SDS011;1738;49.500;17.736;2022-11-20T00:10:13;38.13;;;25.30;;
3447;SDS011;1738;49.500;17.736;2022-11-20T00:12:39;48.43;;;26.03;;
3447;SDS011;1738;49.500;17.736;2022-11-20T00:15:05;41.97;;;25.80;;
3447;SDS011;1738;49.500;17.736;2022-11-20T00:17:31;47.63;;;28.73;;
3447;SDS011;1738;49.500;17.736;2022-11-20T00:19:57;42.47;;;25.40;;
3447;SDS011;1738;49.500;17.736;2022-11-20T00:22:23;47.53;;;27.43;;
3447;SDS011;1738;49.500;17.736;2022-11-20T00:24:49;48.80;;;25.77;;
3447;SDS011;1738;49.500;17.736;2022-11-20T00:27:14;44.15;;;27.48;;
3447;SDS011;1738;49.500;17.736;2022-11-20T00:29:40;41.67;;;27.20;;
3447;SDS011;1738;49.500;17.736;2022-11-20T00:32:06;45.00;;;29.10;;
3447;SDS011;1738;49.500;17.736;2022-11-20T00:34:32;48.87;;;27.20;;
3447;SDS011;1738;49.500;17.736;2022-11-20T00:36:58;45.40;;;28.03;;
3447;SDS011;1738;49.500;17.736;2022-11-20T00:39:24;48.47;;;30.12;;
3447;SDS011;1738;49.500;17.736;2022-11-20T00:41:49;49.23;;;28.87;;
3447;SDS011;1738;49.500;17.736;2022-11-20T00:44:15;40.40;;;26.47;;
3447;SDS011;1738;49.500;17.736;2022-11-20T00:46:41;44.60;;;27.10;;
3447;SDS011;1738;49.500;17.736;2022-11-20T00:49:07;47.07;;;26.33;;
3447;SDS011;1738;49.500;17.736;2022-11-20T00:51:33;44.25;;;28.75;;
3447;SDS011;1738;49.500;17.736;2022-11-20T00:53:59;37.47;;;24.17;;
3447;SDS011;1738;49.500;17.736;2022-11-20T00:56:25;41.65;;;27.13;;
3447;SDS011;1738;49.500;17.736;2022-11-20T00:58:50;42.57;;;25.47;;
3447;SDS011;1738;49.500;17.736;2022-11-20T01:01:18;41.60;;;25.90;;
3447;SDS011;1738;49.500;17.736;2022-11-20T01:03:45;48.13;;;26.37;;
3447;SDS011;1738;49.500;17.736;2022-11-20T01:06:10;42.63;;;26.00;;
3447;SDS011;1738;49.500;17.736;2022-11-20T01:08:35;44.03;;;24.50;;
3447;SDS011;1738;49.500;17.736;2022-11-20T01:11:01;41.23;;;23.83;;
3447;SDS011;1738;49.500;17.736;2022-11-20T01:13:26;42.97;;;24.87;;
3447;SDS011;1738;49.500;17.736;2022-11-20T01:16:02;44.97;;;26.20;;
3447;SDS011;1738;49.500;17.736;2022-11-20T01:18:27;47.50;;;26.60;;
3447;SDS011;1738;49.500;17.736;2022-11-20T01:20:53;38.78;;;24.77;;
3447;SDS011;1738;49.500;17.736;2022-11-20T01:23:19;38.73;;;22.60;;
3447;SDS011;1738;49.500;17.736;2022-11-20T01:25:44;36.35;;;23.48;;
3447;SDS011;1738;49.500;17.736;2022-11-20T01:28:10;42.60;;;22.80;;
3447;SDS011;1738;49.500;17.736;2022-11-20T01:30:36;36.37;;;23.60;;
3447;SDS011;1738;49.500;17.736;2022-11-20T01:33:02;42.17;;;23.70;;
3447;SDS011;1738;49.500;17.736;2022-11-20T01:35:28;36.50;;;24.00;;
3447;SDS011;1738;49.500;17.736;2022-11-20T01:37:54;38.20;;;24.30;;
3447;SDS011;1738;49.500;17.736;2022-11-20T01:40:19;42.83;;;25.00;;
3447;SDS011;1738;49.500;17.736;2022-11-20T01:43:10;39.20;;;25.00;;
3447;SDS011;1738;49.500;17.736;2022-11-20T01:47:49;38.97;;;24.52;;
3447;SDS011;1738;49.500;17.736;2022-11-20T01:50:17;47.83;;;26.47;;
3447;SDS011;1738;49.500;17.736;2022-11-20T01:52:44;42.80;;;24.70;;
3447;SDS011;1738;49.500;17.736;2022-11-20T01:55:09;49.63;;;30.07;;
3447;SDS011;1738;49.500;17.736;2022-11-20T01:57:35;49.03;;;29.27;;
3447;SDS011;1738;49.500;17.736;2022-11-20T02:00:04;43.63;;;28.00;;
3447;SDS011;1738;49.500;17.736;2022-11-20T02:02:28;46.40;;;28.50;;
3447;SDS011;1738;49.500;17.736;2022-11-20T02:04:54;45.80;;;28.60;;
3447;SDS011;1738;49.500;17.736;2022-11-20T02:07:20;43.30;;;26.03;;
3447;SDS011;1738;49.500;17.736;2022-11-20T02:09:46;49.33;;;29.58;;
3447;SDS011;1738;49.500;17.736;2022-11-20T02:12:12;48.23;;;28.17;;
3447;SDS011;1738;49.500;17.736;2022-11-20T02:14:37;52.40;;;30.13;;
3447;SDS011;1738;49.500;17.736;2022-11-20T02:17:03;49.03;;;28.87;;
3447;SDS011;1738;49.500;17.736;2022-11-20T02:19:30;41.03;;;25.30;;
3447;SDS011;1738;49.500;17.736;2022-11-20T02:22:05;45.53;;;26.43;;
3447;SDS011;1738;49.500;17.736;2022-11-20T02:24:28;43.93;;;26.50;;
3447;SDS011;1738;49.500;17.736;2022-11-20T02:26:55;49.30;;;28.20;;
3447;SDS011;1738;49.500;17.736;2022-11-20T02:29:26;49.40;;;30.47;;
3447;SDS011;1738;49.500;17.736;2022-11-20T02:31:51;46.47;;;27.70;;
3447;SDS011;1738;49.500;17.736;2022-11-20T02:34:17;44.43;;;28.57;;
3447;SDS011;1738;49.500;17.736;2022-11-20T02:36:43;43.73;;;27.30;;
3447;SDS011;1738;49.500;17.736;2022-11-20T02:39:09;49.57;;;29.30;;
3447;SDS011;1738;49.500;17.736;2022-11-20T02:41:35;45.80;;;26.70;;
3447;SDS011;1738;49.500;17.736;2022-11-20T02:44:01;51.08;;;31.45;;
3447;SDS011;1738;49.500;17.736;2022-11-20T02:46:26;44.93;;;29.00;;
3447;SDS011;1738;49.500;17.736;2022-11-20T02:48:52;44.43;;;28.10;;
3447;SDS011;1738;49.500;17.736;2022-11-20T02:51:18;48.20;;;29.85;;
3447;SDS011;1738;49.500;17.736;2022-11-20T02:53:44;45.43;;;27.10;;
3447;SDS011;1738;49.500;17.736;2022-11-20T02:56:10;47.20;;;27.73;;
3447;SDS011;1738;49.500;17.736;2022-11-20T02:58:36;49.33;;;28.73;;
3447;SDS011;1738;49.500;17.736;2022-11-20T03:01:01;43.90;;;26.47;;
3447;SDS011;1738;49.500;17.736;2022-11-20T03:03:27;46.07;;;26.90;;
3447;SDS011;1738;49.500;17.736;2022-11-20T03:05:53;44.67;;;25.50;;
3447;SDS011;1738;49.500;17.736;2022-11-20T03:08:19;50.97;;;29.10;;
3447;SDS011;1738;49.500;17.736;2022-11-20T03:10:45;42.33;;;24.07;;
3447;SDS011;1738;49.500;17.736;2022-11-20T03:13:11;45.33;;;24.55;;
3447;SDS011;1738;49.500;17.736;2022-11-20T03:15:36;47.43;;;24.30;;
3447;SDS011;1738;49.500;17.736;2022-11-20T03:18:02;43.20;;;25.30;;
3447;SDS011;1738;49.500;17.736;2022-11-20T03:20:28;40.53;;;23.13;;
3447;SDS011;1738;49.500;17.736;2022-11-20T03:22:54;41.90;;;24.73;;
3447;SDS011;1738;49.500;17.736;2022-11-20T03:25:20;37.90;;;23.70;;
3447;SDS011;1738;49.500;17.736;2022-11-20T03:27:46;42.20;;;25.83;;
3447;SDS011;1738;49.500;17.736;2022-11-20T03:30:12;40.10;;;23.92;;
3447;SDS011;1738;49.500;17.736;2022-11-20T03:32:38;42.27;;;25.23;;
3447;SDS011;1738;49.500;17.736;2022-11-20T03:35:04;38.10;;;22.90;;
3447;SDS011;1738;49.500;17.736;2022-11-20T03:37:31;37.67;;;22.33;;
3447;SDS011;1738;49.500;17.736;2022-11-20T03:39:56;39.57;;;23.07;;
3447;SDS011;1738;49.500;17.736;2022-11-20T03:42:22;44.23;;;23.90;;
3447;SDS011;1738;49.500;17.736;2022-11-20T03:44:54;43.13;;;23.57;;
3447;SDS011;1738;49.500;17.736;2022-11-20T03:47:20;38.70;;;25.40;;
3447;SDS011;1738;49.500;17.736;2022-11-20T03:49:46;45.27;;;23.70;;
3447;SDS011;1738;49.500;17.736;2022-11-20T03:52:12;42.40;;;22.83;;
3447;SDS011;1738;49.500;17.736;2022-11-20T03:54:38;40.83;;;24.80;;
3447;SDS011;1738;49.500;17.736;2022-11-20T03:57:03;35.40;;;22.17;;
3447;SDS011;1738;49.500;17.736;2022-11-20T03:59:29;40.57;;;25.33;;
3447;SDS011;1738;49.500;17.736;2022-11-20T04:01:55;51.40;;;26.03;;
3447;SDS011;1738;49.500;17.736;2022-11-20T04:04:21;51.00;;;23.50;;
3447;SDS011;1738;49.500;17.736;2022-11-20T04:06:48;42.50;;;22.97;;
3447;SDS011;1738;49.500;17.736;2022-11-20T04:09:13;38.60;;;20.80;;
3447;SDS011;1738;49.500;17.736;2022-11-20T04:11:39;38.50;;;22.37;;
3447;SDS011;1738;49.500;17.736;2022-11-20T04:14:06;43.80;;;24.23;;
3447;SDS011;1738;49.500;17.736;2022-11-20T04:16:33;39.13;;;25.07;;
3447;SDS011;1738;49.500;17.736;2022-11-20T04:18:58;40.10;;;22.77;;
3447;SDS011;1738;49.500;17.736;2022-11-20T04:21:23;44.10;;;24.60;;
3447;SDS011;1738;49.500;17.736;2022-11-20T04:23:49;42.00;;;23.20;;
3447;SDS011;1738;49.500;17.736;2022-11-20T04:26:15;32.10;;;21.07;;
3447;SDS011;1738;49.500;17.736;2022-11-20T04:28:41;43.83;;;25.12;;
3447;SDS011;1738;49.500;17.736;2022-11-20T04:31:08;47.10;;;25.20;;
3447;SDS011;1738;49.500;17.736;2022-11-20T04:33:33;38.50;;;22.77;;
3447;SDS011;1738;49.500;17.736;2022-11-20T04:36:00;38.73;;;22.90;;
3447;SDS011;1738;49.500;17.736;2022-11-20T04:38:25;48.30;;;27.13;;
3447;SDS011;1738;49.500;17.736;2022-11-20T04:40:51;45.80;;;24.63;;
3447;SDS011;1738;49.500;17.736;2022-11-20T04:43:17;39.53;;;22.57;;
3447;SDS011;1738;49.500;17.736;2022-11-20T04:45:43;41.60;;;25.62;;
3447;SDS011;1738;49.500;17.736;2022-11-20T04:48:09;38.63;;;23.67;;
3447;SDS011;1738;49.500;17.736;2022-11-20T04:50:39;42.17;;;24.73;;
3447;SDS011;1738;49.500;17.736;2022-11-20T04:53:01;40.07;;;24.37;;
3447;SDS011;1738;49.500;17.736;2022-11-20T04:55:27;38.13;;;23.57;;
3447;SDS011;1738;49.500;17.736;2022-11-20T04:57:53;39.60;;;24.10;;
3447;SDS011;1738;49.500;17.736;2022-11-20T05:00:19;43.07;;;22.90;;
3447;SDS011;1738;49.500;17.736;2022-11-20T05:02:44;39.63;;;23.83;;
3447;SDS011;1738;49.500;17.736;2022-11-20T05:05:10;48.70;;;26.07;;
3447;SDS011;1738;49.500;17.736;2022-11-20T05:07:36;48.33;;;25.97;;
3447;SDS011;1738;49.500;17.736;2022-11-20T05:10:02;39.70;;;23.63;;
3447;SDS011;1738;49.500;17.736;2022-11-20T05:12:28;39.90;;;23.37;;
3447;SDS011;1738;49.500;17.736;2022-11-20T05:14:54;40.72;;;24.65;;
3447;SDS011;1738;49.500;17.736;2022-11-20T05:17:20;41.77;;;24.73;;
3447;SDS011;1738;49.500;17.736;2022-11-20T05:19:45;39.23;;;24.63;;
3447;SDS011;1738;49.500;17.736;2022-11-20T05:22:11;40.83;;;23.00;;
3447;SDS011;1738;49.500;17.736;2022-11-20T05:24:37;46.20;;;26.83;;
3447;SDS011;1738;49.500;17.736;2022-11-20T05:27:03;45.50;;;24.07;;
3447;SDS011;1738;49.500;17.736;2022-11-20T05:29:29;40.73;;;23.73;;
3447;SDS011;1738;49.500;17.736;2022-11-20T05:31:55;45.17;;;26.77;;
3447;SDS011;1738;49.500;17.736;2022-11-20T05:34:20;37.40;;;23.93;;
3447;SDS011;1738;49.500;17.736;2022-11-20T05:36:46;42.38;;;23.50;;
3447;SDS011;1738;49.500;17.736;2022-11-20T05:39:12;42.17;;;23.70;;
3447;SDS011;1738;49.500;17.736;2022-11-20T05:41:38;43.50;;;24.00;;
3447;SDS011;1738;49.500;17.736;2022-11-20T05:44:04;45.63;;;25.37;;
3447;SDS011;1738;49.500;17.736;2022-11-20T05:46:30;44.23;;;24.80;;
3447;SDS011;1738;49.500;17.736;2022-11-20T05:48:56;38.17;;;22.43;;
3447;SDS011;1738;49.500;17.736;2022-11-20T05:51:22;45.03;;;25.43;;
3447;SDS011;1738;49.500;17.736;2022-11-20T05:53:47;39.13;;;23.93;;
3447;SDS011;1738;49.500;17.736;2022-11-20T05:56:14;40.10;;;23.57;;
3447;SDS011;1738;49.500;17.736;2022-11-20T05:58:39;45.67;;;23.87;;
3447;SDS011;1738;49.500;17.736;2022-11-20T06:01:07;46.13;;;26.13;;
3447;SDS011;1738;49.500;17.736;2022-11-20T06:03:31;38.90;;;24.50;;
3447;SDS011;1738;49.500;17.736;2022-11-20T06:05:59;48.05;;;24.87;;
3447;SDS011;1738;49.500;17.736;2022-11-20T06:08:24;40.83;;;23.73;;
3447;SDS011;1738;49.500;17.736;2022-11-20T06:10:50;39.77;;;23.57;;
3447;SDS011;1738;49.500;17.736;2022-11-20T06:13:16;45.40;;;25.63;;
3447;SDS011;1738;49.500;17.736;2022-11-20T06:15:42;39.40;;;23.60;;
3447;SDS011;1738;49.500;17.736;2022-11-20T06:18:08;42.40;;;26.37;;
3447;SDS011;1738;49.500;17.736;2022-11-20T06:20:34;44.10;;;25.90;;
3447;SDS011;1738;49.500;17.736;2022-11-20T06:22:59;48.47;;;26.10;;
3447;SDS011;1738;49.500;17.736;2022-11-20T06:25:25;44.53;;;24.90;;
3447;SDS011;1738;49.500;17.736;2022-11-20T06:27:51;46.77;;;26.67;;
3447;SDS011;1738;49.500;17.736;2022-11-20T06:30:17;45.90;;;27.17;;
3447;SDS011;1738;49.500;17.736;2022-11-20T06:32:43;43.03;;;26.83;;
3447;SDS011;1738;49.500;17.736;2022-11-20T06:35:09;46.57;;;28.20;;
3447;SDS011;1738;49.500;17.736;2022-11-20T06:37:35;45.77;;;28.60;;
3447;SDS011;1738;49.500;17.736;2022-11-20T06:40:01;42.30;;;28.13;;
3447;SDS011;1738;49.500;17.736;2022-11-20T06:42:26;47.93;;;29.03;;
3447;SDS011;1738;49.500;17.736;2022-11-20T06:44:52;47.43;;;28.10;;
3447;SDS011;1738;49.500;17.736;2022-11-20T06:47:18;44.93;;;26.60;;
3447;SDS011;1738;49.500;17.736;2022-11-20T06:49:44;43.20;;;24.60;;
3447;SDS011;1738;49.500;17.736;2022-11-20T06:52:10;45.10;;;26.05;;
3447;SDS011;1738;49.500;17.736;2022-11-20T06:54:36;42.43;;;26.37;;
3447;SDS011;1738;49.500;17.736;2022-11-20T06:57:02;47.90;;;28.77;;
3447;SDS011;1738;49.500;17.736;2022-11-20T06:59:27;40.13;;;24.73;;
3447;SDS011;1738;49.500;17.736;2022-11-20T07:01:53;43.50;;;25.90;;
3447;SDS011;1738;49.500;17.736;2022-11-20T07:04:19;42.93;;;26.13;;
3447;SDS011;1738;49.500;17.736;2022-11-20T07:06:45;45.30;;;26.03;;
3447;SDS011;1738;49.500;17.736;2022-11-20T07:09:11;40.17;;;24.20;;
3447;SDS011;1738;49.500;17.736;2022-11-20T07:11:37;43.55;;;25.52;;
3447;SDS011;1738;49.500;17.736;2022-11-20T07:14:02;37.60;;;24.50;;
3447;SDS011;1738;49.500;17.736;2022-11-20T07:16:28;47.13;;;26.23;;
3447;SDS011;1738;49.500;17.736;2022-11-20T07:18:54;50.27;;;28.50;;
3447;SDS011;1738;49.500;17.736;2022-11-20T07:21:20;41.17;;;25.17;;
3447;SDS011;1738;49.500;17.736;2022-11-20T07:23:46;42.83;;;24.77;;
3447;SDS011;1738;49.500;17.736;2022-11-20T07:26:12;46.20;;;26.23;;
3447;SDS011;1738;49.500;17.736;2022-11-20T07:28:38;42.10;;;27.53;;
3447;SDS011;1738;49.500;17.736;2022-11-20T07:31:04;50.57;;;30.70;;
3447;SDS011;1738;49.500;17.736;2022-11-20T07:33:30;41.28;;;24.58;;
3447;SDS011;1738;49.500;17.736;2022-11-20T07:35:57;45.97;;;27.20;;
3447;SDS011;1738;49.500;17.736;2022-11-20T07:38:22;41.33;;;26.60;;
3447;SDS011;1738;49.500;17.736;2022-11-20T07:40:47;44.50;;;27.23;;
3447;SDS011;1738;49.500;17.736;2022-11-20T07:43:13;41.67;;;25.80;;
3447;SDS011;1738;49.500;17.736;2022-11-20T07:45:39;45.80;;;26.60;;
3447;SDS011;1738;49.500;17.736;2022-11-20T07:48:05;51.23;;;27.50;;
3447;SDS011;1738;49.500;17.736;2022-11-20T07:50:31;49.87;;;27.20;;
3447;SDS011;1738;49.500;17.736;2022-11-20T07:53:00;40.87;;;23.83;;
3447;SDS011;1738;49.500;17.736;2022-11-20T07:55:25;45.60;;;28.20;;
3447;SDS011;1738;49.500;17.736;2022-11-20T07:57:55;48.93;;;27.00;;
3447;SDS011;1738;49.500;17.736;2022-11-20T08:00:20;46.73;;;27.27;;
3447;SDS011;1738;49.500;17.736;2022-11-20T08:02:46;54.33;;;27.70;;
3447;SDS011;1738;49.500;17.736;2022-11-20T08:05:12;45.67;;;27.87;;
3447;SDS011;1738;49.500;17.736;2022-11-20T08:07:39;43.57;;;28.30;;
3447;SDS011;1738;49.500;17.736;2022-11-20T08:10:05;46.63;;;26.40;;
3447;SDS011;1738;49.500;17.736;2022-11-20T08:12:31;46.90;;;27.53;;
3447;SDS011;1738;49.500;17.736;2022-11-20T08:15:03;46.10;;;27.40;;
3447;SDS011;1738;49.500;17.736;2022-11-20T08:17:29;46.10;;;27.40;;
3447;SDS011;1738;49.500;17.736;2022-11-20T08:19:55;47.27;;;26.00;;
3447;SDS011;1738;49.500;17.736;2022-11-20T08:22:20;40.40;;;23.27;;
3447;SDS011;1738;49.500;17.736;2022-11-20T08:24:46;54.80;;;26.47;;
3447;SDS011;1738;49.500;17.736;2022-11-20T08:27:12;47.13;;;24.20;;
3447;SDS011;1738;49.500;17.736;2022-11-20T08:29:38;48.30;;;26.60;;
3447;SDS011;1738;49.500;17.736;2022-11-20T08:32:04;37.53;;;24.10;;
3447;SDS011;1738;49.500;17.736;2022-11-20T08:34:30;38.00;;;22.67;;
3447;SDS011;1738;49.500;17.736;2022-11-20T08:36:56;40.67;;;25.33;;
3447;SDS011;1738;49.500;17.736;2022-11-20T08:39:21;48.10;;;25.83;;
3447;SDS011;1738;49.500;17.736;2022-11-20T08:41:47;41.67;;;22.70;;
3447;SDS011;1738;49.500;17.736;2022-11-20T08:44:13;42.53;;;25.27;;
3447;SDS011;1738;49.500;17.736;2022-11-20T08:46:40;35.57;;;21.57;;
3447;SDS011;1738;49.500;17.736;2022-11-20T08:49:05;40.07;;;23.13;;
3447;SDS011;1738;49.500;17.736;2022-11-20T08:51:31;43.10;;;22.43;;
3447;SDS011;1738;49.500;17.736;2022-11-20T08:53:56;37.57;;;21.57;;
3447;SDS011;1738;49.500;17.736;2022-11-20T08:56:22;39.67;;;23.70;;
3447;SDS011;1738;49.500;17.736;2022-11-20T08:58:49;39.17;;;21.80;;
3447;SDS011;1738;49.500;17.736;2022-11-20T09:01:14;41.20;;;22.00;;
3447;SDS011;1738;49.500;17.736;2022-11-20T09:03:40;37.43;;;22.87;;
3447;SDS011;1738;49.500;17.736;2022-11-20T09:06:06;35.60;;;20.60;;
3447;SDS011;1738;49.500;17.736;2022-11-20T09:08:32;36.40;;;20.63;;
3447;SDS011;1738;49.500;17.736;2022-11-20T09:10:58;39.80;;;21.83;;
3447;SDS011;1738;49.500;17.736;2022-11-20T09:13:24;40.20;;;20.67;;
3447;SDS011;1738;49.500;17.736;2022-11-20T09:15:53;39.33;;;21.77;;
3447;SDS011;1738;49.500;17.736;2022-11-20T09:18:18;34.47;;;20.60;;
3447;SDS011;1738;49.500;17.736;2022-11-20T09:20:44;39.53;;;21.10;;
3447;SDS011;1738;49.500;17.736;2022-11-20T09:23:10;33.87;;;21.47;;
3447;SDS011;1738;49.500;17.736;2022-11-20T09:25:36;37.60;;;21.87;;
3447;SDS011;1738;49.500;17.736;2022-11-20T09:28:01;39.78;;;20.73;;
3447;SDS011;1738;49.500;17.736;2022-11-20T09:30:27;40.50;;;21.90;;
3447;SDS011;1738;49.500;17.736;2022-11-20T09:32:53;42.47;;;22.30;;
3447;SDS011;1738;49.500;17.736;2022-11-20T09:35:19;36.67;;;20.10;;
3447;SDS011;1738;49.500;17.736;2022-11-20T09:37:45;34.17;;;21.70;;
3447;SDS011;1738;49.500;17.736;2022-11-20T09:40:25;43.27;;;21.07;;
3447;SDS011;1738;49.500;17.736;2022-11-20T09:43:10;41.07;;;21.63;;
3447;SDS011;1738;49.500;17.736;2022-11-20T09:48:20;41.20;;;22.40;;
3447;SDS011;1738;49.500;17.736;2022-11-20T09:50:44;47.03;;;23.80;;
3447;SDS011;1738;49.500;17.736;2022-11-20T09:53:12;38.28;;;22.80;;
3447;SDS011;1738;49.500;17.736;2022-11-20T09:55:36;36.43;;;21.23;;
3447;SDS011;1738;49.500;17.736;2022-11-20T09:58:02;39.10;;;22.37;;
3447;SDS011;1738;49.500;17.736;2022-11-20T10:00:29;38.00;;;21.80;;
3447;SDS011;1738;49.500;17.736;2022-11-20T10:02:59;40.60;;;24.27;;
3447;SDS011;1738;49.500;17.736;2022-11-20T10:05:36;40.07;;;22.70;;
3447;SDS011;1738;49.500;17.736;2022-11-20T10:08:08;42.10;;;22.57;;
3447;SDS011;1738;49.500;17.736;2022-11-20T10:10:31;41.37;;;23.90;;
3447;SDS011;1738;49.500;17.736;2022-11-20T10:13:02;38.23;;;21.33;;
3447;SDS011;1738;49.500;17.736;2022-11-20T10:15:33;50.60;;;26.70;;
3447;SDS011;1738;49.500;17.736;2022-11-20T10:19:11;35.22;;;19.95;;
3447;SDS011;1738;49.500;17.736;2022-11-20T10:20:55;43.70;;;23.53;;
3447;SDS011;1738;49.500;17.736;2022-11-20T10:23:35;38.57;;;21.67;;
3447;SDS011;1738;49.500;17.736;2022-11-20T10:26:02;45.90;;;24.85;;
3447;SDS011;1738;49.500;17.736;2022-11-20T10:28:37;49.47;;;23.77;;
3447;SDS011;1738;49.500;17.736;2022-11-20T10:31:04;38.40;;;22.50;;
3447;SDS011;1738;49.500;17.736;2022-11-20T10:33:31;44.23;;;23.57;;
3447;SDS011;1738;49.500;17.736;2022-11-20T10:36:03;44.47;;;24.30;;
3447;SDS011;1738;49.500;17.736;2022-11-20T10:38:25;43.47;;;23.93;;
3447;SDS011;1738;49.500;17.736;2022-11-20T10:40:58;45.00;;;25.50;;
3447;SDS011;1738;49.500;17.736;2022-11-20T10:43:28;51.70;;;26.10;;
3447;SDS011;1738;49.500;17.736;2022-11-20T10:45:53;47.47;;;25.77;;
3447;SDS011;1738;49.500;17.736;2022-11-20T10:48:20;44.80;;;24.43;;
3447;SDS011;1738;49.500;17.736;2022-11-20T10:50:50;44.10;;;24.40;;
3447;SDS011;1738;49.500;17.736;2022-11-20T10:53:26;46.57;;;27.00;;
3447;SDS011;1738;49.500;17.736;2022-11-20T10:55:50;41.13;;;24.57;;
3447;SDS011;1738;49.500;17.736;2022-11-20T10:58:24;39.40;;;24.37;;
3447;SDS011;1738;49.500;17.736;2022-11-20T11:00:46;52.33;;;24.70;;
3447;SDS011;1738;49.500;17.736;2022-11-20T11:03:20;38.27;;;23.23;;
3447;SDS011;1738;49.500;17.736;2022-11-20T11:05:43;41.90;;;24.60;;
3447;SDS011;1738;49.500;17.736;2022-11-20T11:08:10;43.20;;;26.60;;
3447;SDS011;1738;49.500;17.736;2022-11-20T11:10:37;49.43;;;26.10;;
3447;SDS011;1738;49.500;17.736;2022-11-20T11:13:01;44.23;;;26.03;;
3447;SDS011;1738;49.500;17.736;2022-11-20T11:15:35;42.17;;;22.57;;
3447;SDS011;1738;49.500;17.736;2022-11-20T11:17:55;44.37;;;24.47;;
3447;SDS011;1738;49.500;17.736;2022-11-20T11:20:22;52.22;;;28.77;;
3447;SDS011;1738;49.500;17.736;2022-11-20T11:22:48;46.03;;;23.57;;
3447;SDS011;1738;49.500;17.736;2022-11-20T11:25:22;43.37;;;25.17;;
3447;SDS011;1738;49.500;17.736;2022-11-20T11:27:47;46.87;;;25.70;;
3447;SDS011;1738;49.500;17.736;2022-11-20T11:30:15;43.90;;;27.33;;
3447;SDS011;1738;49.500;17.736;2022-11-20T11:32:41;50.57;;;25.63;;
3447;SDS011;1738;49.500;17.736;2022-11-20T11:35:18;46.00;;;26.60;;
3447;SDS011;1738;49.500;17.736;2022-11-20T11:37:37;46.30;;;24.80;;
3447;SDS011;1738;49.500;17.736;2022-11-20T11:40:03;48.13;;;26.37;;
3447;SDS011;1738;49.500;17.736;2022-11-20T11:42:29;47.08;;;26.08;;
3447;SDS011;1738;49.500;17.736;2022-11-20T11:44:56;49.40;;;25.50;;
3447;SDS011;1738;49.500;17.736;2022-11-20T11:47:30;46.20;;;28.03;;
3447;SDS011;1738;49.500;17.736;2022-11-20T11:50:02;51.40;;;28.00;;
3447;SDS011;1738;49.500;17.736;2022-11-20T11:52:27;44.87;;;24.37;;
3447;SDS011;1738;49.500;17.736;2022-11-20T11:54:55;44.20;;;26.40;;
3447;SDS011;1738;49.500;17.736;2022-11-20T12:00:05;49.43;;;28.10;;
3447;SDS011;1738;49.500;17.736;2022-11-20T12:02:32;47.17;;;26.27;;
3447;SDS011;1738;49.500;17.736;2022-11-20T12:05:00;50.40;;;26.73;;
3447;SDS011;1738;49.500;17.736;2022-11-20T12:07:43;51.37;;;28.33;;
3447;SDS011;1738;49.500;17.736;2022-11-20T12:10:19;45.00;;;25.80;;
3447;SDS011;1738;49.500;17.736;2022-11-20T12:12:48;52.20;;;26.87;;
3447;SDS011;1738;49.500;17.736;2022-11-20T12:15:12;45.55;;;24.25;;
3447;SDS011;1738;49.500;17.736;2022-11-20T12:17:37;46.87;;;27.13;;
3447;SDS011;1738;49.500;17.736;2022-11-20T12:20:19;53.23;;;28.93;;
3447;SDS011;1738;49.500;17.736;2022-11-20T12:22:48;47.40;;;27.93;;
3447;SDS011;1738;49.500;17.736;2022-11-20T12:25:12;49.63;;;27.07;;
3447;SDS011;1738;49.500;17.736;2022-11-20T12:27:44;44.10;;;24.93;;
3447;SDS011;1738;49.500;17.736;2022-11-20T12:30:11;45.93;;;27.00;;
3447;SDS011;1738;49.500;17.736;2022-11-20T12:32:46;51.60;;;29.90;;
3447;SDS011;1738;49.500;17.736;2022-11-20T12:35:17;47.43;;;27.13;;
3447;SDS011;1738;49.500;17.736;2022-11-20T12:37:48;55.63;;;29.97;;
3447;SDS011;1738;49.500;17.736;2022-11-20T12:40:20;58.77;;;29.53;;
3447;SDS011;1738;49.500;17.736;2022-11-20T12:42:51;52.97;;;28.60;;
3447;SDS011;1738;49.500;17.736;2022-11-20T12:45:31;50.80;;;28.90;;
3447;SDS011;1738;49.500;17.736;2022-11-20T12:50:39;53.63;;;30.80;;
3447;SDS011;1738;49.500;17.736;2022-11-20T12:55:36;49.35;;;29.00;;
3447;SDS011;1738;49.500;17.736;2022-11-20T12:58:05;47.50;;;27.00;;
3447;SDS011;1738;49.500;17.736;2022-11-20T13:00:28;48.22;;;27.25;;
3447;SDS011;1738;49.500;17.736;2022-11-20T13:02:58;46.67;;;25.90;;
3447;SDS011;1738;49.500;17.736;2022-11-20T13:05:24;45.43;;;28.90;;
3447;SDS011;1738;49.500;17.736;2022-11-20T13:07:50;57.27;;;27.33;;
3447;SDS011;1738;49.500;17.736;2022-11-20T13:10:26;52.83;;;30.63;;
3447;SDS011;1738;49.500;17.736;2022-11-20T13:12:55;51.77;;;29.00;;
3447;SDS011;1738;49.500;17.736;2022-11-20T13:17:59;49.57;;;29.10;;
3447;SDS011;1738;49.500;17.736;2022-11-20T13:20:25;54.87;;;29.33;;
3447;SDS011;1738;49.500;17.736;2022-11-20T13:22:51;48.30;;;27.77;;
3447;SDS011;1738;49.500;17.736;2022-11-20T13:25:25;62.10;;;32.50;;
3447;SDS011;1738;49.500;17.736;2022-11-20T13:27:50;53.70;;;29.17;;
3447;SDS011;1738;49.500;17.736;2022-11-20T13:30:17;50.73;;;29.20;;
3447;SDS011;1738;49.500;17.736;2022-11-20T13:32:48;63.27;;;33.87;;
3447;SDS011;1738;49.500;17.736;2022-11-20T13:35:13;70.57;;;38.77;;
3447;SDS011;1738;49.500;17.736;2022-11-20T13:37:39;67.57;;;36.27;;
3447;SDS011;1738;49.500;17.736;2022-11-20T13:40:19;60.17;;;32.17;;
3447;SDS011;1738;49.500;17.736;2022-11-20T13:42:45;58.40;;;31.10;;
3447;SDS011;1738;49.500;17.736;2022-11-20T13:45:20;50.67;;;28.17;;
3447;SDS011;1738;49.500;17.736;2022-11-20T13:47:36;58.70;;;32.30;;
3447;SDS011;1738;49.500;17.736;2022-11-20T13:50:03;67.73;;;33.80;;
3447;SDS011;1738;49.500;17.736;2022-11-20T13:52:41;57.50;;;31.50;;
3447;SDS011;1738;49.500;17.736;2022-11-20T13:55:12;68.67;;;36.20;;
3447;SDS011;1738;49.500;17.736;2022-11-20T13:57:47;78.43;;;38.40;;
3447;SDS011;1738;49.500;17.736;2022-11-20T14:00:11;64.57;;;36.10;;
3447;SDS011;1738;49.500;17.736;2022-11-20T14:02:35;79.27;;;40.77;;
3447;SDS011;1738;49.500;17.736;2022-11-20T14:05:01;66.37;;;35.67;;
3447;SDS011;1738;49.500;17.736;2022-11-20T14:07:31;63.38;;;36.08;;
3447;SDS011;1738;49.500;17.736;2022-11-20T14:09:54;79.73;;;40.73;;
3447;SDS011;1738;49.500;17.736;2022-11-20T14:12:21;82.27;;;42.33;;
3447;SDS011;1738;49.500;17.736;2022-11-20T14:14:47;65.97;;;35.07;;
3447;SDS011;1738;49.500;17.736;2022-11-20T14:17:20;62.03;;;36.53;;
3447;SDS011;1738;49.500;17.736;2022-11-20T14:19:45;59.97;;;32.30;;
3447;SDS011;1738;49.500;17.736;2022-11-20T14:22:17;59.78;;;34.33;;
3447;SDS011;1738;49.500;17.736;2022-11-20T14:24:40;65.87;;;37.13;;
3447;SDS011;1738;49.500;17.736;2022-11-20T14:27:13;69.47;;;37.67;;
3447;SDS011;1738;49.500;17.736;2022-11-20T14:29:38;62.90;;;34.20;;
3447;SDS011;1738;49.500;17.736;2022-11-20T14:32:04;60.10;;;34.10;;
3447;SDS011;1738;49.500;17.736;2022-11-20T14:34:31;63.30;;;33.43;;
3447;SDS011;1738;49.500;17.736;2022-11-20T14:36:57;69.97;;;36.25;;
3447;SDS011;1738;49.500;17.736;2022-11-20T14:39:25;62.33;;;33.73;;
3447;SDS011;1738;49.500;17.736;2022-11-20T14:41:50;63.67;;;33.53;;
3447;SDS011;1738;49.500;17.736;2022-11-20T14:44:16;63.00;;;31.90;;
3447;SDS011;1738;49.500;17.736;2022-11-20T14:46:42;62.73;;;31.10;;